sensor_id;sensor_type;location;lat;lon;timestamp;P1;durP1;ratioP1;P2;durP2;ratioP2
66587;SDS011;53446;50.076;8.198;2023-11-21T14:25:42;12.27;;;4.13;;
66587;SDS011;53446;50.076;8.198;2023-11-21T14:27:43;10.60;;;4.67;;
66587;SDS011;53446;50.076;8.198;2023-11-21T14:29:43;9.20;;;3.73;;
66587;SDS011;53446;50.076;8.198;2023-11-21T14:31:45;7.50;;;4.00;;
66587;SDS011;53446;50.076;8.198;2023-11-21T14:33:46;11.25;;;3.85;;
66587;SDS011;53446;50.076;8.198;2023-11-21T14:35:46;8.50;;;4.10;;
66587;SDS011;53446;50.076;8.198;2023-11-21T14:37:46;11.50;;;4.60;;
66587;SDS011;53446;50.076;8.198;2023-11-21T14:39:47;9.98;;;4.20;;
66587;SDS011;53446;50.076;8.198;2023-11-21T14:41:49;10.33;;;4.53;;
66587;SDS011;53446;50.076;8.198;2023-11-21T14:43:50;9.65;;;4.70;;
66587;SDS011;53446;50.076;8.198;2023-11-21T14:45:51;13.20;;;4.87;;
66587;SDS011;53446;50.076;8.198;2023-11-21T14:47:51;11.20;;;5.03;;
66587;SDS011;53446;50.076;8.198;2023-11-21T14:50:17;9.95;;;4.50;;
66587;SDS011;53446;50.076;8.198;2023-11-21T14:52:44;11.48;;;4.88;;
66587;SDS011;53446;50.076;8.198;2023-11-21T14:54:55;9.73;;;4.68;;
66587;SDS011;53446;50.076;8.198;2023-11-21T14:57:15;11.15;;;4.85;;
66587;SDS011;53446;50.076;8.198;2023-11-21T14:59:18;10.00;;;5.20;;
66587;SDS011;53446;50.076;8.198;2023-11-21T15:01:19;10.57;;;4.88;;
66587;SDS011;53446;50.076;8.198;2023-11-21T15:03:30;10.70;;;4.70;;
66587;SDS011;53446;50.076;8.198;2023-11-21T15:05:30;13.87;;;4.97;;
66587;SDS011;53446;50.076;8.198;2023-11-21T15:07:31;11.52;;;4.88;;
66587;SDS011;53446;50.076;8.198;2023-11-21T15:09:31;10.60;;;5.03;;
66587;SDS011;53446;50.076;8.198;2023-11-21T15:11:32;13.40;;;5.63;;
66587;SDS011;53446;50.076;8.198;2023-11-21T15:13:33;10.40;;;5.22;;
66587;SDS011;53446;50.076;8.198;2023-11-21T15:15:33;12.90;;;5.20;;
66587;SDS011;53446;50.076;8.198;2023-11-21T15:17:34;13.55;;;5.60;;
66587;SDS011;53446;50.076;8.198;2023-11-21T15:19:35;11.67;;;5.13;;
66587;SDS011;53446;50.076;8.198;2023-11-21T15:21:36;14.13;;;6.50;;
66587;SDS011;53446;50.076;8.198;2023-11-21T15:23:36;9.95;;;4.68;;
66587;SDS011;53446;50.076;8.198;2023-11-21T15:25:36;9.80;;;5.40;;
66587;SDS011;53446;50.076;8.198;2023-11-21T15:27:37;12.90;;;5.30;;
66587;SDS011;53446;50.076;8.198;2023-11-21T15:29:40;15.20;;;5.75;;
66587;SDS011;53446;50.076;8.198;2023-11-21T15:31:43;13.43;;;5.30;;
66587;SDS011;53446;50.076;8.198;2023-11-21T15:33:48;11.70;;;5.25;;
66587;SDS011;53446;50.076;8.198;2023-11-21T15:35:48;13.20;;;5.73;;
66587;SDS011;53446;50.076;8.198;2023-11-21T15:37:49;11.93;;;5.33;;
66587;SDS011;53446;50.076;8.198;2023-11-21T15:39:49;14.02;;;6.03;;
66587;SDS011;53446;50.076;8.198;2023-11-21T15:41:49;13.40;;;6.10;;
66587;SDS011;53446;50.076;8.198;2023-11-21T15:43:50;14.40;;;6.00;;
66587;SDS011;53446;50.076;8.198;2023-11-21T15:45:51;12.02;;;6.07;;
66587;SDS011;53446;50.076;8.198;2023-11-21T15:47:51;15.50;;;6.40;;
66587;SDS011;53446;50.076;8.198;2023-11-21T15:49:53;14.17;;;6.33;;
66587;SDS011;53446;50.076;8.198;2023-11-21T15:51:53;14.23;;;5.93;;
66587;SDS011;53446;50.076;8.198;2023-11-21T15:53:55;15.93;;;7.10;;
66587;SDS011;53446;50.076;8.198;2023-11-21T15:55:55;13.97;;;6.20;;
66587;SDS011;53446;50.076;8.198;2023-11-21T15:57:56;16.30;;;6.77;;
66587;SDS011;53446;50.076;8.198;2023-11-21T16:17:37;13.75;;;6.78;;
66587;SDS011;53446;50.076;8.198;2023-11-21T16:19:38;16.88;;;6.55;;
66587;SDS011;53446;50.076;8.198;2023-11-21T16:34:11;17.73;;;8.60;;
66587;SDS011;53446;50.076;8.198;2023-11-21T16:39:12;17.48;;;7.97;;
66587;SDS011;53446;50.076;8.198;2023-11-21T16:41:13;18.67;;;7.60;;
66587;SDS011;53446;50.076;8.198;2023-11-21T16:43:14;17.60;;;7.45;;
66587;SDS011;53446;50.076;8.198;2023-11-21T16:45:14;19.80;;;8.53;;
66587;SDS011;53446;50.076;8.198;2023-11-21T16:47:15;18.63;;;7.97;;
66587;SDS011;53446;50.076;8.198;2023-11-21T16:49:16;19.38;;;8.43;;
66587;SDS011;53446;50.076;8.198;2023-11-21T16:51:17;18.13;;;8.17;;
66587;SDS011;53446;50.076;8.198;2023-11-21T16:53:18;17.88;;;8.15;;
66587;SDS011;53446;50.076;8.198;2023-11-21T16:55:18;21.30;;;10.03;;
66587;SDS011;53446;50.076;8.198;2023-11-21T17:03:12;17.60;;;7.45;;
66587;SDS011;53446;50.076;8.198;2023-11-21T17:05:12;18.33;;;8.17;;
66587;SDS011;53446;50.076;8.198;2023-11-21T17:07:16;18.80;;;7.77;;
66587;SDS011;53446;50.076;8.198;2023-11-21T17:09:20;18.42;;;7.85;;
66587;SDS011;53446;50.076;8.198;2023-11-21T17:11:20;18.63;;;8.10;;
66587;SDS011;53446;50.076;8.198;2023-11-21T17:13:20;19.67;;;8.60;;
66587;SDS011;53446;50.076;8.198;2023-11-21T17:15:21;18.80;;;8.25;;
66587;SDS011;53446;50.076;8.198;2023-11-21T17:17:22;19.13;;;7.60;;
66587;SDS011;53446;50.076;8.198;2023-11-21T17:19:22;21.60;;;7.90;;
66587;SDS011;53446;50.076;8.198;2023-11-21T17:21:23;23.93;;;10.23;;
66587;SDS011;53446;50.076;8.198;2023-11-21T17:23:23;22.08;;;8.63;;
66587;SDS011;53446;50.076;8.198;2023-11-21T17:25:23;17.67;;;8.90;;
66587;SDS011;53446;50.076;8.198;2023-11-21T17:27:24;22.27;;;10.40;;
66587;SDS011;53446;50.076;8.198;2023-11-21T17:29:24;18.53;;;8.47;;
66587;SDS011;53446;50.076;8.198;2023-11-21T17:31:26;19.75;;;8.50;;
66587;SDS011;53446;50.076;8.198;2023-11-21T17:33:27;19.15;;;8.10;;
66587;SDS011;53446;50.076;8.198;2023-11-21T17:35:28;17.40;;;7.90;;
66587;SDS011;53446;50.076;8.198;2023-11-21T17:37:28;20.90;;;8.30;;
66587;SDS011;53446;50.076;8.198;2023-11-21T17:39:28;18.45;;;8.18;;
66587;SDS011;53446;50.076;8.198;2023-11-21T17:41:29;20.53;;;9.80;;
66587;SDS011;53446;50.076;8.198;2023-11-21T17:43:29;16.80;;;8.93;;
66587;SDS011;53446;50.076;8.198;2023-11-21T17:45:30;16.65;;;7.85;;
66587;SDS011;53446;50.076;8.198;2023-11-21T17:47:31;20.27;;;8.20;;
66587;SDS011;53446;50.076;8.198;2023-11-21T17:49:31;19.97;;;9.17;;
66587;SDS011;53446;50.076;8.198;2023-11-21T17:51:32;17.80;;;8.97;;
66587;SDS011;53446;50.076;8.198;2023-11-21T17:53:37;19.98;;;8.43;;
66587;SDS011;53446;50.076;8.198;2023-11-21T17:55:37;23.70;;;8.83;;
66587;SDS011;53446;50.076;8.198;2023-11-21T17:57:38;20.53;;;8.67;;
66587;SDS011;53446;50.076;8.198;2023-11-21T17:59:39;19.20;;;8.57;;
66587;SDS011;53446;50.076;8.198;2023-11-21T18:01:39;17.67;;;9.00;;
66587;SDS011;53446;50.076;8.198;2023-11-21T18:03:42;17.30;;;8.43;;
66587;SDS011;53446;50.076;8.198;2023-11-21T18:05:42;18.67;;;8.20;;
66587;SDS011;53446;50.076;8.198;2023-11-21T18:07:43;17.92;;;8.60;;
66587;SDS011;53446;50.076;8.198;2023-11-21T18:09:44;20.43;;;8.47;;
66587;SDS011;53446;50.076;8.198;2023-11-21T18:11:44;18.17;;;8.38;;
66587;SDS011;53446;50.076;8.198;2023-11-21T18:13:44;16.17;;;7.95;;
66587;SDS011;53446;50.076;8.198;2023-11-21T18:15:45;19.27;;;8.77;;
66587;SDS011;53446;50.076;8.198;2023-11-21T18:17:45;16.87;;;7.63;;
66587;SDS011;53446;50.076;8.198;2023-11-21T18:19:46;17.73;;;7.90;;
66587;SDS011;53446;50.076;8.198;2023-11-21T18:21:47;20.52;;;8.60;;
66587;SDS011;53446;50.076;8.198;2023-11-21T18:23:48;17.60;;;8.27;;
66587;SDS011;53446;50.076;8.198;2023-11-21T18:25:48;18.43;;;8.50;;
66587;SDS011;53446;50.076;8.198;2023-11-21T18:27:48;15.77;;;7.50;;
66587;SDS011;53446;50.076;8.198;2023-11-21T18:29:49;17.73;;;8.02;;
66587;SDS011;53446;50.076;8.198;2023-11-21T18:31:49;19.30;;;8.02;;
66587;SDS011;53446;50.076;8.198;2023-11-21T18:33:49;20.33;;;8.80;;
66587;SDS011;53446;50.076;8.198;2023-11-21T18:35:50;20.77;;;8.97;;
66587;SDS011;53446;50.076;8.198;2023-11-21T18:37:50;18.77;;;8.90;;
66587;SDS011;53446;50.076;8.198;2023-11-21T18:39:51;18.43;;;8.17;;
66587;SDS011;53446;50.076;8.198;2023-11-21T18:41:51;19.77;;;8.57;;
66587;SDS011;53446;50.076;8.198;2023-11-21T18:43:52;21.27;;;8.90;;
66587;SDS011;53446;50.076;8.198;2023-11-21T18:45:53;19.13;;;9.50;;
66587;SDS011;53446;50.076;8.198;2023-11-21T18:47:54;25.08;;;11.07;;
66587;SDS011;53446;50.076;8.198;2023-11-21T18:49:56;20.88;;;9.63;;
66587;SDS011;53446;50.076;8.198;2023-11-21T18:51:56;19.27;;;8.47;;
66587;SDS011;53446;50.076;8.198;2023-11-21T18:53:57;19.60;;;8.88;;
66587;SDS011;53446;50.076;8.198;2023-11-21T18:55:58;18.37;;;8.73;;
66587;SDS011;53446;50.076;8.198;2023-11-21T18:57:58;21.57;;;10.03;;
66587;SDS011;53446;50.076;8.198;2023-11-21T18:59:58;28.63;;;12.80;;
66587;SDS011;53446;50.076;8.198;2023-11-21T19:04:55;17.75;;;8.90;;
66587;SDS011;53446;50.076;8.198;2023-11-21T19:06:56;32.65;;;15.10;;
66587;SDS011;53446;50.076;8.198;2023-11-21T19:08:59;40.10;;;18.65;;
66587;SDS011;53446;50.076;8.198;2023-11-21T19:11:00;32.00;;;15.03;;
66587;SDS011;53446;50.076;8.198;2023-11-21T19:13:00;53.63;;;23.40;;
66587;SDS011;53446;50.076;8.198;2023-11-21T19:15:04;18.70;;;9.32;;
66587;SDS011;53446;50.076;8.198;2023-11-21T19:17:08;28.67;;;13.90;;
66587;SDS011;53446;50.076;8.198;2023-11-21T19:19:08;16.30;;;8.35;;
66587;SDS011;53446;50.076;8.198;2023-11-21T19:21:15;20.97;;;10.80;;
66587;SDS011;53446;50.076;8.198;2023-11-21T19:23:16;19.35;;;6.10;;
66587;SDS011;53446;50.076;8.198;2023-11-21T19:25:17;12.13;;;5.20;;
66587;SDS011;53446;50.076;8.198;2023-11-21T19:27:18;12.68;;;6.20;;
66587;SDS011;53446;50.076;8.198;2023-11-21T19:29:19;11.07;;;4.95;;
66587;SDS011;53446;50.076;8.198;2023-11-21T19:31:20;9.93;;;4.80;;
66587;SDS011;53446;50.076;8.198;2023-11-21T19:33:21;10.23;;;4.25;;
66587;SDS011;53446;50.076;8.198;2023-11-21T19:35:21;8.40;;;4.80;;
66587;SDS011;53446;50.076;8.198;2023-11-21T19:37:21;9.63;;;3.63;;
66587;SDS011;53446;50.076;8.198;2023-11-21T19:39:22;7.07;;;3.50;;
66587;SDS011;53446;50.076;8.198;2023-11-21T19:44:19;5.18;;;2.15;;
66587;SDS011;53446;50.076;8.198;2023-11-21T19:46:19;8.27;;;3.10;;
66587;SDS011;53446;50.076;8.198;2023-11-21T19:48:20;5.70;;;2.63;;
66587;SDS011;53446;50.076;8.198;2023-11-21T19:50:23;5.65;;;2.35;;
66587;SDS011;53446;50.076;8.198;2023-11-21T19:52:23;5.30;;;2.40;;
66587;SDS011;53446;50.076;8.198;2023-11-21T19:54:25;5.82;;;2.60;;
66587;SDS011;53446;50.076;8.198;2023-11-21T19:56:25;5.37;;;2.37;;
66587;SDS011;53446;50.076;8.198;2023-11-21T19:58:26;5.47;;;2.20;;
66587;SDS011;53446;50.076;8.198;2023-11-21T20:00:26;5.33;;;2.33;;
66587;SDS011;53446;50.076;8.198;2023-11-21T20:02:28;5.75;;;2.40;;
66587;SDS011;53446;50.076;8.198;2023-11-21T20:04:28;5.82;;;2.58;;
66587;SDS011;53446;50.076;8.198;2023-11-21T20:06:29;5.60;;;2.50;;
66587;SDS011;53446;50.076;8.198;2023-11-21T20:08:29;5.70;;;2.50;;
66587;SDS011;53446;50.076;8.198;2023-11-21T20:10:36;7.43;;;2.90;;
66587;SDS011;53446;50.076;8.198;2023-11-21T20:12:38;7.15;;;2.60;;
66587;SDS011;53446;50.076;8.198;2023-11-21T20:14:39;5.27;;;2.70;;
66587;SDS011;53446;50.076;8.198;2023-11-21T20:16:39;8.17;;;3.80;;
66587;SDS011;53446;50.076;8.198;2023-11-21T20:18:40;6.22;;;3.00;;
66587;SDS011;53446;50.076;8.198;2023-11-21T20:23:38;7.35;;;3.35;;
66587;SDS011;53446;50.076;8.198;2023-11-21T20:25:39;7.80;;;3.40;;
66587;SDS011;53446;50.076;8.198;2023-11-21T20:27:40;8.70;;;3.90;;
66587;SDS011;53446;50.076;8.198;2023-11-21T20:29:41;10.38;;;3.50;;
66587;SDS011;53446;50.076;8.198;2023-11-21T20:31:41;7.55;;;3.20;;
66587;SDS011;53446;50.076;8.198;2023-11-21T20:33:42;6.40;;;3.30;;
66587;SDS011;53446;50.076;8.198;2023-11-21T20:35:42;6.97;;;3.50;;
66587;SDS011;53446;50.076;8.198;2023-11-21T20:37:43;8.43;;;3.75;;
66587;SDS011;53446;50.076;8.198;2023-11-21T20:39:43;7.33;;;3.87;;
66587;SDS011;53446;50.076;8.198;2023-11-21T20:41:46;7.20;;;3.70;;
66587;SDS011;53446;50.076;8.198;2023-11-21T20:43:47;8.45;;;4.00;;
66587;SDS011;53446;50.076;8.198;2023-11-21T20:45:48;7.30;;;4.20;;
66587;SDS011;53446;50.076;8.198;2023-11-21T20:47:48;8.70;;;4.60;;
66587;SDS011;53446;50.076;8.198;2023-11-21T20:49:48;8.30;;;4.70;;
66587;SDS011;53446;50.076;8.198;2023-11-21T20:51:51;9.35;;;4.80;;
66587;SDS011;53446;50.076;8.198;2023-11-21T20:53:51;8.00;;;4.60;;
66587;SDS011;53446;50.076;8.198;2023-11-21T20:55:51;8.18;;;4.47;;
66587;SDS011;53446;50.076;8.198;2023-11-21T20:57:52;9.38;;;5.10;;
66587;SDS011;53446;50.076;8.198;2023-11-21T20:59:53;8.90;;;4.80;;
66587;SDS011;53446;50.076;8.198;2023-11-21T21:01:53;13.50;;;6.93;;
66587;SDS011;53446;50.076;8.198;2023-11-21T21:03:53;10.77;;;5.43;;
66587;SDS011;53446;50.076;8.198;2023-11-21T21:05:54;8.97;;;4.83;;
66587;SDS011;53446;50.076;8.198;2023-11-21T21:07:55;14.05;;;5.90;;
66587;SDS011;53446;50.076;8.198;2023-11-21T21:09:55;9.10;;;4.70;;
66587;SDS011;53446;50.076;8.198;2023-11-21T21:11:56;10.10;;;5.13;;
66587;SDS011;53446;50.076;8.198;2023-11-21T21:13:57;9.07;;;4.70;;
66587;SDS011;53446;50.076;8.198;2023-11-21T21:15:58;12.38;;;6.00;;
66587;SDS011;53446;50.076;8.198;2023-11-21T21:18:00;11.93;;;5.17;;
66587;SDS011;53446;50.076;8.198;2023-11-21T21:20:05;8.93;;;4.97;;
66587;SDS011;53446;50.076;8.198;2023-11-21T21:22:06;10.10;;;5.20;;
66587;SDS011;53446;50.076;8.198;2023-11-21T21:24:06;10.03;;;5.20;;
66587;SDS011;53446;50.076;8.198;2023-11-21T21:26:07;9.37;;;4.73;;
66587;SDS011;53446;50.076;8.198;2023-11-21T21:28:09;8.15;;;4.80;;
66587;SDS011;53446;50.076;8.198;2023-11-21T21:30:10;9.40;;;5.03;;
66587;SDS011;53446;50.076;8.198;2023-11-21T21:32:10;9.75;;;4.85;;
66587;SDS011;53446;50.076;8.198;2023-11-21T21:34:11;10.57;;;4.93;;
66587;SDS011;53446;50.076;8.198;2023-11-21T21:39:10;9.85;;;4.60;;
66587;SDS011;53446;50.076;8.198;2023-11-21T21:41:15;9.75;;;4.88;;
66587;SDS011;53446;50.076;8.198;2023-11-21T21:43:17;8.57;;;4.83;;
66587;SDS011;53446;50.076;8.198;2023-11-21T21:45:18;8.43;;;4.03;;
66587;SDS011;53446;50.076;8.198;2023-11-21T21:47:18;9.80;;;4.50;;
66587;SDS011;53446;50.076;8.198;2023-11-21T21:49:18;9.27;;;4.27;;
66587;SDS011;53446;50.076;8.198;2023-11-21T21:51:19;8.53;;;4.37;;
66587;SDS011;53446;50.076;8.198;2023-11-21T21:53:19;8.60;;;4.37;;
66587;SDS011;53446;50.076;8.198;2023-11-21T21:55:19;8.93;;;4.00;;
66587;SDS011;53446;50.076;8.198;2023-11-21T21:57:20;8.87;;;4.50;;
66587;SDS011;53446;50.076;8.198;2023-11-21T21:59:20;8.57;;;4.23;;
66587;SDS011;53446;50.076;8.198;2023-11-21T22:01:21;8.13;;;3.83;;
66587;SDS011;53446;50.076;8.198;2023-11-21T22:03:24;9.93;;;4.25;;
66587;SDS011;53446;50.076;8.198;2023-11-21T22:05:26;8.02;;;3.78;;
66587;SDS011;53446;50.076;8.198;2023-11-21T22:07:26;7.27;;;3.70;;
66587;SDS011;53446;50.076;8.198;2023-11-21T22:09:26;7.97;;;3.87;;
66587;SDS011;53446;50.076;8.198;2023-11-21T22:11:27;7.40;;;3.60;;
66587;SDS011;53446;50.076;8.198;2023-11-21T22:13:27;8.60;;;3.93;;
66587;SDS011;53446;50.076;8.198;2023-11-21T22:15:27;7.90;;;3.30;;
66587;SDS011;53446;50.076;8.198;2023-11-21T22:17:27;7.50;;;3.47;;
66587;SDS011;53446;50.076;8.198;2023-11-21T22:19:28;7.50;;;3.80;;
66587;SDS011;53446;50.076;8.198;2023-11-21T22:21:29;8.30;;;3.80;;
66587;SDS011;53446;50.076;8.198;2023-11-21T22:23:29;8.23;;;3.63;;
66587;SDS011;53446;50.076;8.198;2023-11-21T22:25:29;8.63;;;3.85;;
66587;SDS011;53446;50.076;8.198;2023-11-21T22:27:30;8.93;;;3.20;;
66587;SDS011;53446;50.076;8.198;2023-11-21T22:29:30;8.13;;;3.50;;
66587;SDS011;53446;50.076;8.198;2023-11-21T22:31:31;6.73;;;3.27;;
66587;SDS011;53446;50.076;8.198;2023-11-21T22:33:31;7.25;;;3.15;;
66587;SDS011;53446;50.076;8.198;2023-11-21T22:35:31;6.13;;;2.80;;
66587;SDS011;53446;50.076;8.198;2023-11-21T22:37:33;6.57;;;3.00;;
66587;SDS011;53446;50.076;8.198;2023-11-21T22:39:33;5.83;;;2.93;;
66587;SDS011;53446;50.076;8.198;2023-11-21T22:41:33;6.90;;;2.80;;
66587;SDS011;53446;50.076;8.198;2023-11-21T22:43:33;8.17;;;3.27;;
66587;SDS011;53446;50.076;8.198;2023-11-21T22:45:34;6.60;;;3.27;;
66587;SDS011;53446;50.076;8.198;2023-11-21T22:47:34;5.57;;;2.60;;
66587;SDS011;53446;50.076;8.198;2023-11-21T22:49:35;8.20;;;2.97;;
66587;SDS011;53446;50.076;8.198;2023-11-21T22:51:35;5.82;;;2.65;;
66587;SDS011;53446;50.076;8.198;2023-11-21T22:53:36;6.50;;;2.90;;
66587;SDS011;53446;50.076;8.198;2023-11-21T22:55:38;6.88;;;2.85;;
66587;SDS011;53446;50.076;8.198;2023-11-21T22:57:38;6.55;;;2.90;;
66587;SDS011;53446;50.076;8.198;2023-11-21T22:59:38;6.30;;;2.90;;
66587;SDS011;53446;50.076;8.198;2023-11-21T23:01:39;6.00;;;2.80;;
66587;SDS011;53446;50.076;8.198;2023-11-21T23:03:39;6.37;;;2.67;;
66587;SDS011;53446;50.076;8.198;2023-11-21T23:05:40;7.50;;;2.90;;
66587;SDS011;53446;50.076;8.198;2023-11-21T23:07:40;7.15;;;2.95;;
66587;SDS011;53446;50.076;8.198;2023-11-21T23:09:40;8.20;;;3.92;;
66587;SDS011;53446;50.076;8.198;2023-11-21T23:11:41;6.53;;;2.60;;
66587;SDS011;53446;50.076;8.198;2023-11-21T23:13:42;5.68;;;2.70;;
66587;SDS011;53446;50.076;8.198;2023-11-21T23:15:42;7.50;;;3.00;;
66587;SDS011;53446;50.076;8.198;2023-11-21T23:17:46;6.13;;;2.70;;
66587;SDS011;53446;50.076;8.198;2023-11-21T23:19:46;6.37;;;2.87;;
66587;SDS011;53446;50.076;8.198;2023-11-21T23:21:47;7.33;;;3.00;;
66587;SDS011;53446;50.076;8.198;2023-11-21T23:23:47;5.83;;;2.67;;
66587;SDS011;53446;50.076;8.198;2023-11-21T23:25:48;7.43;;;2.70;;
66587;SDS011;53446;50.076;8.198;2023-11-21T23:27:48;6.18;;;2.80;;
66587;SDS011;53446;50.076;8.198;2023-11-21T23:29:49;7.45;;;2.90;;
66587;SDS011;53446;50.076;8.198;2023-11-21T23:31:53;7.40;;;2.75;;
66587;SDS011;53446;50.076;8.198;2023-11-21T23:33:54;6.55;;;2.85;;
66587;SDS011;53446;50.076;8.198;2023-11-21T23:35:54;6.47;;;2.67;;
66587;SDS011;53446;50.076;8.198;2023-11-21T23:37:54;5.97;;;2.40;;
66587;SDS011;53446;50.076;8.198;2023-11-21T23:39:55;5.70;;;2.70;;
66587;SDS011;53446;50.076;8.198;2023-11-21T23:41:55;6.50;;;2.53;;
66587;SDS011;53446;50.076;8.198;2023-11-21T23:43:55;5.97;;;2.30;;
66587;SDS011;53446;50.076;8.198;2023-11-21T23:45:56;6.40;;;2.60;;
66587;SDS011;53446;50.076;8.198;2023-11-21T23:47:56;7.55;;;2.67;;
66587;SDS011;53446;50.076;8.198;2023-11-21T23:49:56;4.95;;;2.05;;
66587;SDS011;53446;50.076;8.198;2023-11-21T23:51:57;6.80;;;2.87;;
66587;SDS011;53446;50.076;8.198;2023-11-21T23:53:58;5.93;;;2.90;;
66587;SDS011;53446;50.076;8.198;2023-11-21T23:55:58;8.23;;;2.60;;
66587;SDS011;53446;50.076;8.198;2023-11-21T23:57:58;6.87;;;2.80;;
